sensor_id;sensor_type;location;lat;lon;timestamp;P1;P2;P0
39955;PMS5003;25631;51.516;-0.470;2023-03-23T00:01:54;8;4;
39955;PMS5003;25631;51.516;-0.470;2023-03-23T00:04:36;10;5;
39955;PMS5003;25631;51.516;-0.470;2023-03-23T00:07:12;10;5;
39955;PMS5003;25631;51.516;-0.470;2023-03-23T00:09:49;10;5;
39955;PMS5003;25631;51.516;-0.470;2023-03-23T00:12:27;9;4;
39955;PMS5003;25631;51.516;-0.470;2023-03-23T00:15:06;9;4;
39955;PMS5003;25631;51.516;-0.470;2023-03-23T00:17:44;9;4;
39955;PMS5003;25631;51.516;-0.470;2023-03-23T00:20:20;11;5;
39955;PMS5003;25631;51.516;-0.470;2023-03-23T00:22:57;11;5;
39955;PMS5003;25631;51.516;-0.470;2023-03-23T00:25:33;11;5;
39955;PMS5003;25631;51.516;-0.470;2023-03-23T00:28:09;7;4;
39955;PMS5003;25631;51.516;-0.470;2023-03-23T00:30:46;7;4;
39955;PMS5003;25631;51.516;-0.470;2023-03-23T00:33:23;7;4;
39955;PMS5003;25631;51.516;-0.470;2023-03-23T00:36:00;7;4;
39955;PMS5003;25631;51.516;-0.470;2023-03-23T00:38:36;8;5;
39955;PMS5003;25631;51.516;-0.470;2023-03-23T00:41:14;8;5;
39955;PMS5003;25631;51.516;-0.470;2023-03-23T00:43:51;9;6;
39955;PMS5003;25631;51.516;-0.470;2023-03-23T00:46:27;9;6;
39955;PMS5003;25631;51.516;-0.470;2023-03-23T00:49:04;9;6;
39955;PMS5003;25631;51.516;-0.470;2023-03-23T00:51:40;9;7;
39955;PMS5003;25631;51.516;-0.470;2023-03-23T00:54:18;9;7;
39955;PMS5003;25631;51.516;-0.470;2023-03-23T00:56:56;8;6;
39955;PMS5003;25631;51.516;-0.470;2023-03-23T00:59:32;9;6;
39955;PMS5003;25631;51.516;-0.470;2023-03-23T01:02:09;9;6;
39955;PMS5003;25631;51.516;-0.470;2023-03-23T01:04:45;10;7;
39955;PMS5003;25631;51.516;-0.470;2023-03-23T01:07:22;10;8;
39955;PMS5003;25631;51.516;-0.470;2023-03-23T01:09:58;10;8;
39955;PMS5003;25631;51.516;-0.470;2023-03-23T01:12:35;10;8;
39955;PMS5003;25631;51.516;-0.470;2023-03-23T01:15:13;10;8;
39955;PMS5003;25631;51.516;-0.470;2023-03-23T01:17:51;10;8;
39955;PMS5003;25631;51.516;-0.470;2023-03-23T01:20:27;10;8;
39955;PMS5003;25631;51.516;-0.470;2023-03-23T01:23:04;12;9;
39955;PMS5003;25631;51.516;-0.470;2023-03-23T01:25:40;12;9;
39955;PMS5003;25631;51.516;-0.470;2023-03-23T01:28:17;12;9;
39955;PMS5003;25631;51.516;-0.470;2023-03-23T01:30:54;13;10;
39955;PMS5003;25631;51.516;-0.470;2023-03-23T01:33:35;13;10;
39955;PMS5003;25631;51.516;-0.470;2023-03-23T01:36:13;13;10;
39955;PMS5003;25631;51.516;-0.470;2023-03-23T01:38:52;13;10;
39955;PMS5003;25631;51.516;-0.470;2023-03-23T01:41:29;12;9;
39955;PMS5003;25631;51.516;-0.470;2023-03-23T01:44:06;12;9;
39955;PMS5003;25631;51.516;-0.470;2023-03-23T01:47:56;12;9;
39955;PMS5003;25631;51.516;-0.470;2023-03-23T01:50:38;12;9;
39955;PMS5003;25631;51.516;-0.470;2023-03-23T01:53:23;13;10;
39955;PMS5003;25631;51.516;-0.470;2023-03-23T01:56:04;14;10;
39955;PMS5003;25631;51.516;-0.470;2023-03-23T01:58:43;14;10;
39955;PMS5003;25631;51.516;-0.470;2023-03-23T02:01:20;13;9;
39955;PMS5003;25631;51.516;-0.470;2023-03-23T02:03:57;12;9;
39955;PMS5003;25631;51.516;-0.470;2023-03-23T02:06:33;12;9;
39955;PMS5003;25631;51.516;-0.470;2023-03-23T02:09:10;12;9;
39955;PMS5003;25631;51.516;-0.470;2023-03-23T02:11:47;12;9;
39955;PMS5003;25631;51.516;-0.470;2023-03-23T02:14:25;12;9;
39955;PMS5003;25631;51.516;-0.470;2023-03-23T02:17:04;12;9;
39955;PMS5003;25631;51.516;-0.470;2023-03-23T02:19:53;12;9;
39955;PMS5003;25631;51.516;-0.470;2023-03-23T02:22:46;12;9;
39955;PMS5003;25631;51.516;-0.470;2023-03-23T02:25:45;12;9;
39955;PMS5003;25631;51.516;-0.470;2023-03-23T02:30:51;12;9;
39955;PMS5003;25631;51.516;-0.470;2023-03-23T02:33:42;12;9;
39955;PMS5003;25631;51.516;-0.470;2023-03-23T02:36:25;11;7;
39955;PMS5003;25631;51.516;-0.470;2023-03-23T02:39:08;10;6;
39955;PMS5003;25631;51.516;-0.470;2023-03-23T02:41:49;10;6;
39955;PMS5003;25631;51.516;-0.470;2023-03-23T02:44:28;8;5;
39955;PMS5003;25631;51.516;-0.470;2023-03-23T02:47:07;9;6;
39955;PMS5003;25631;51.516;-0.470;2023-03-23T02:49:54;9;6;
39955;PMS5003;25631;51.516;-0.470;2023-03-23T02:52:33;9;6;
39955;PMS5003;25631;51.516;-0.470;2023-03-23T02:55:12;9;6;
39955;PMS5003;25631;51.516;-0.470;2023-03-23T02:57:50;9;6;
39955;PMS5003;25631;51.516;-0.470;2023-03-23T03:00:28;9;6;
39955;PMS5003;25631;51.516;-0.470;2023-03-23T03:03:06;9;6;
39955;PMS5003;25631;51.516;-0.470;2023-03-23T03:05:50;8;5;
39955;PMS5003;25631;51.516;-0.470;2023-03-23T03:08:35;10;5;
39955;PMS5003;25631;51.516;-0.470;2023-03-23T03:11:17;10;5;
39955;PMS5003;25631;51.516;-0.470;2023-03-23T03:13:57;10;5;
39955;PMS5003;25631;51.516;-0.470;2023-03-23T03:16:38;12;6;
39955;PMS5003;25631;51.516;-0.470;2023-03-23T03:19:22;12;6;
39955;PMS5003;25631;51.516;-0.470;2023-03-23T03:22:02;12;6;
39955;PMS5003;25631;51.516;-0.470;2023-03-23T03:24:39;13;6;
39955;PMS5003;25631;51.516;-0.470;2023-03-23T03:27:18;13;6;
39955;PMS5003;25631;51.516;-0.470;2023-03-23T03:29:56;13;6;
39955;PMS5003;25631;51.516;-0.470;2023-03-23T03:32:36;13;6;
39955;PMS5003;25631;51.516;-0.470;2023-03-23T03:35:16;12;5;
39955;PMS5003;25631;51.516;-0.470;2023-03-23T03:37:53;12;5;
39955;PMS5003;25631;51.516;-0.470;2023-03-23T03:40:30;12;5;
39955;PMS5003;25631;51.516;-0.470;2023-03-23T03:43:07;13;6;
39955;PMS5003;25631;51.516;-0.470;2023-03-23T03:45:43;13;6;
39955;PMS5003;25631;51.516;-0.470;2023-03-23T03:48:20;12;6;
39955;PMS5003;25631;51.516;-0.470;2023-03-23T03:50:57;12;6;
39955;PMS5003;25631;51.516;-0.470;2023-03-23T03:53:34;12;6;
39955;PMS5003;25631;51.516;-0.470;2023-03-23T03:56:10;14;7;
39955;PMS5003;25631;51.516;-0.470;2023-03-23T03:58:46;14;7;
39955;PMS5003;25631;51.516;-0.470;2023-03-23T04:01:23;14;7;
39955;PMS5003;25631;51.516;-0.470;2023-03-23T04:03:59;14;7;
39955;PMS5003;25631;51.516;-0.470;2023-03-23T04:06:36;14;7;
39955;PMS5003;25631;51.516;-0.470;2023-03-23T04:09:12;14;7;
39955;PMS5003;25631;51.516;-0.470;2023-03-23T04:11:49;12;7;
39955;PMS5003;25631;51.516;-0.470;2023-03-23T04:14:25;12;7;
39955;PMS5003;25631;51.516;-0.470;2023-03-23T04:17:02;12;7;
39955;PMS5003;25631;51.516;-0.470;2023-03-23T04:19:38;13;7;
39955;PMS5003;25631;51.516;-0.470;2023-03-23T04:22:15;13;7;
39955;PMS5003;25631;51.516;-0.470;2023-03-23T04:24:51;13;7;
39955;PMS5003;25631;51.516;-0.470;2023-03-23T04:27:28;14;7;
39955;PMS5003;25631;51.516;-0.470;2023-03-23T04:30:04;14;7;
39955;PMS5003;25631;51.516;-0.470;2023-03-23T04:32:42;14;7;
39955;PMS5003;25631;51.516;-0.470;2023-03-23T04:35:19;14;8;
39955;PMS5003;25631;51.516;-0.470;2023-03-23T04:37:56;14;8;
39955;PMS5003;25631;51.516;-0.470;2023-03-23T04:40:35;14;8;
39955;PMS5003;25631;51.516;-0.470;2023-03-23T04:43:12;13;8;
39955;PMS5003;25631;51.516;-0.470;2023-03-23T04:45:52;13;8;
39955;PMS5003;25631;51.516;-0.470;2023-03-23T04:48:30;13;8;
39955;PMS5003;25631;51.516;-0.470;2023-03-23T04:51:06;12;8;
39955;PMS5003;25631;51.516;-0.470;2023-03-23T04:53:43;12;8;
39955;PMS5003;25631;51.516;-0.470;2023-03-23T04:56:19;12;8;
39955;PMS5003;25631;51.516;-0.470;2023-03-23T04:58:56;14;9;
39955;PMS5003;25631;51.516;-0.470;2023-03-23T05:01:32;14;9;
39955;PMS5003;25631;51.516;-0.470;2023-03-23T05:04:09;14;9;
39955;PMS5003;25631;51.516;-0.470;2023-03-23T05:06:45;14;9;
39955;PMS5003;25631;51.516;-0.470;2023-03-23T05:09:22;14;9;
39955;PMS5003;25631;51.516;-0.470;2023-03-23T05:12:03;14;9;
39955;PMS5003;25631;51.516;-0.470;2023-03-23T05:14:40;12;10;
39955;PMS5003;25631;51.516;-0.470;2023-03-23T05:17:16;12;10;
39955;PMS5003;25631;51.516;-0.470;2023-03-23T05:19:53;12;10;
39955;PMS5003;25631;51.516;-0.470;2023-03-23T05:22:30;12;9;
39955;PMS5003;25631;51.516;-0.470;2023-03-23T05:25:07;12;9;
39955;PMS5003;25631;51.516;-0.470;2023-03-23T05:27:44;12;9;
39955;PMS5003;25631;51.516;-0.470;2023-03-23T05:30:21;14;8;
39955;PMS5003;25631;51.516;-0.470;2023-03-23T05:32:58;14;8;
39955;PMS5003;25631;51.516;-0.470;2023-03-23T05:35:34;14;8;
39955;PMS5003;25631;51.516;-0.470;2023-03-23T05:38:11;14;8;
39955;PMS5003;25631;51.516;-0.470;2023-03-23T05:40:47;15;9;
39955;PMS5003;25631;51.516;-0.470;2023-03-23T05:43:24;15;9;
39955;PMS5003;25631;51.516;-0.470;2023-03-23T05:46:00;12;8;
39955;PMS5003;25631;51.516;-0.470;2023-03-23T05:48:36;12;8;
39955;PMS5003;25631;51.516;-0.470;2023-03-23T05:51:13;12;8;
39955;PMS5003;25631;51.516;-0.470;2023-03-23T05:53:49;15;10;
39955;PMS5003;25631;51.516;-0.470;2023-03-23T05:56:26;17;11;
39955;PMS5003;25631;51.516;-0.470;2023-03-23T05:59:02;18;12;
39955;PMS5003;25631;51.516;-0.470;2023-03-23T06:01:39;17;11;
39955;PMS5003;25631;51.516;-0.470;2023-03-23T06:04:16;17;11;
39955;PMS5003;25631;51.516;-0.470;2023-03-23T06:06:52;16;10;
39955;PMS5003;25631;51.516;-0.470;2023-03-23T06:09:29;17;11;
39955;PMS5003;25631;51.516;-0.470;2023-03-23T06:12:06;14;11;
39955;PMS5003;25631;51.516;-0.470;2023-03-23T06:14:43;13;11;
39955;PMS5003;25631;51.516;-0.470;2023-03-23T06:17:20;14;11;
39955;PMS5003;25631;51.516;-0.470;2023-03-23T06:19:56;10;10;
39955;PMS5003;25631;51.516;-0.470;2023-03-23T06:22:33;8;8;
39955;PMS5003;25631;51.516;-0.470;2023-03-23T06:25:10;8;7;
39955;PMS5003;25631;51.516;-0.470;2023-03-23T06:27:46;8;7;
39955;PMS5003;25631;51.516;-0.470;2023-03-23T06:30:23;8;7;
39955;PMS5003;25631;51.516;-0.470;2023-03-23T06:32:59;9;8;
39955;PMS5003;25631;51.516;-0.470;2023-03-23T06:35:36;9;8;
39955;PMS5003;25631;51.516;-0.470;2023-03-23T06:38:13;9;8;
39955;PMS5003;25631;51.516;-0.470;2023-03-23T06:40:51;9;8;
39955;PMS5003;25631;51.516;-0.470;2023-03-23T06:43:28;9;8;
39955;PMS5003;25631;51.516;-0.470;2023-03-23T06:46:05;9;8;
39955;PMS5003;25631;51.516;-0.470;2023-03-23T06:48:42;9;8;
39955;PMS5003;25631;51.516;-0.470;2023-03-23T06:51:18;9;8;
39955;PMS5003;25631;51.516;-0.470;2023-03-23T06:53:55;9;8;
39955;PMS5003;25631;51.516;-0.470;2023-03-23T06:56:32;8;7;
39955;PMS5003;25631;51.516;-0.470;2023-03-23T06:59:08;8;7;
39955;PMS5003;25631;51.516;-0.470;2023-03-23T07:01:45;8;7;
39955;PMS5003;25631;51.516;-0.470;2023-03-23T07:04:22;10;6;
39955;PMS5003;25631;51.516;-0.470;2023-03-23T07:06:58;10;6;
39955;PMS5003;25631;51.516;-0.470;2023-03-23T07:09:34;10;6;
39955;PMS5003;25631;51.516;-0.470;2023-03-23T07:12:11;10;6;
39955;PMS5003;25631;51.516;-0.470;2023-03-23T07:14:47;10;6;
39955;PMS5003;25631;51.516;-0.470;2023-03-23T07:17:24;10;6;
39955;PMS5003;25631;51.516;-0.470;2023-03-23T07:20:00;9;6;
39955;PMS5003;25631;51.516;-0.470;2023-03-23T07:22:37;9;6;
39955;PMS5003;25631;51.516;-0.470;2023-03-23T07:25:13;9;6;
39955;PMS5003;25631;51.516;-0.470;2023-03-23T07:27:50;9;5;
39955;PMS5003;25631;51.516;-0.470;2023-03-23T07:30:26;9;5;
39955;PMS5003;25631;51.516;-0.470;2023-03-23T07:33:04;9;5;
39955;PMS5003;25631;51.516;-0.470;2023-03-23T07:35:42;10;6;
39955;PMS5003;25631;51.516;-0.470;2023-03-23T07:38:18;10;6;
39955;PMS5003;25631;51.516;-0.470;2023-03-23T07:40:55;10;6;
39955;PMS5003;25631;51.516;-0.470;2023-03-23T07:43:32;9;6;
39955;PMS5003;25631;51.516;-0.470;2023-03-23T07:46:09;8;5;
39955;PMS5003;25631;51.516;-0.470;2023-03-23T07:48:45;8;5;
39955;PMS5003;25631;51.516;-0.470;2023-03-23T07:51:21;9;5;
39955;PMS5003;25631;51.516;-0.470;2023-03-23T07:53:58;10;6;
39955;PMS5003;25631;51.516;-0.470;2023-03-23T07:56:35;10;6;
39955;PMS5003;25631;51.516;-0.470;2023-03-23T07:59:12;9;6;
39955;PMS5003;25631;51.516;-0.470;2023-03-23T08:01:49;8;5;
39955;PMS5003;25631;51.516;-0.470;2023-03-23T08:04:26;8;5;
39955;PMS5003;25631;51.516;-0.470;2023-03-23T08:07:02;10;5;
39955;PMS5003;25631;51.516;-0.470;2023-03-23T08:09:39;10;5;
39955;PMS5003;25631;51.516;-0.470;2023-03-23T08:12:15;10;5;
39955;PMS5003;25631;51.516;-0.470;2023-03-23T08:14:52;10;5;
39955;PMS5003;25631;51.516;-0.470;2023-03-23T08:17:28;10;5;
39955;PMS5003;25631;51.516;-0.470;2023-03-23T08:20:05;10;5;
39955;PMS5003;25631;51.516;-0.470;2023-03-23T08:22:44;8;5;
39955;PMS5003;25631;51.516;-0.470;2023-03-23T08:25:26;8;5;
39955;PMS5003;25631;51.516;-0.470;2023-03-23T08:28:04;8;5;
39955;PMS5003;25631;51.516;-0.470;2023-03-23T08:30:40;8;5;
39955;PMS5003;25631;51.516;-0.470;2023-03-23T08:33:18;8;5;
39955;PMS5003;25631;51.516;-0.470;2023-03-23T08:35:55;8;5;
39955;PMS5003;25631;51.516;-0.470;2023-03-23T08:38:32;9;6;
39955;PMS5003;25631;51.516;-0.470;2023-03-23T08:41:09;9;6;
39955;PMS5003;25631;51.516;-0.470;2023-03-23T08:43:46;9;6;
39955;PMS5003;25631;51.516;-0.470;2023-03-23T08:46:22;9;6;
39955;PMS5003;25631;51.516;-0.470;2023-03-23T08:49:00;9;6;
39955;PMS5003;25631;51.516;-0.470;2023-03-23T08:51:37;9;6;
39955;PMS5003;25631;51.516;-0.470;2023-03-23T08:54:13;8;6;
39955;PMS5003;25631;51.516;-0.470;2023-03-23T08:56:50;8;6;
39955;PMS5003;25631;51.516;-0.470;2023-03-23T08:59:27;8;6;
39955;PMS5003;25631;51.516;-0.470;2023-03-23T09:02:04;9;6;
39955;PMS5003;25631;51.516;-0.470;2023-03-23T09:04:40;9;6;
39955;PMS5003;25631;51.516;-0.470;2023-03-23T09:07:17;9;6;
39955;PMS5003;25631;51.516;-0.470;2023-03-23T09:09:53;8;6;
39955;PMS5003;25631;51.516;-0.470;2023-03-23T09:12:29;8;6;
39955;PMS5003;25631;51.516;-0.470;2023-03-23T09:15:06;8;6;
39955;PMS5003;25631;51.516;-0.470;2023-03-23T09:17:46;9;6;
39955;PMS5003;25631;51.516;-0.470;2023-03-23T09:20:25;9;6;
39955;PMS5003;25631;51.516;-0.470;2023-03-23T09:23:03;9;6;
39955;PMS5003;25631;51.516;-0.470;2023-03-23T09:25:40;7;6;
39955;PMS5003;25631;51.516;-0.470;2023-03-23T09:28:16;7;6;
39955;PMS5003;25631;51.516;-0.470;2023-03-23T09:30:54;7;6;
39955;PMS5003;25631;51.516;-0.470;2023-03-23T09:33:31;9;8;
39955;PMS5003;25631;51.516;-0.470;2023-03-23T09:36:08;9;8;
39955;PMS5003;25631;51.516;-0.470;2023-03-23T09:38:44;9;8;
39955;PMS5003;25631;51.516;-0.470;2023-03-23T09:41:27;10;8;
39955;PMS5003;25631;51.516;-0.470;2023-03-23T09:44:20;10;8;
39955;PMS5003;25631;51.516;-0.470;2023-03-23T09:47:05;10;8;
39955;PMS5003;25631;51.516;-0.470;2023-03-23T09:49:50;10;8;
39955;PMS5003;25631;51.516;-0.470;2023-03-23T09:52:34;11;9;
39955;PMS5003;25631;51.516;-0.470;2023-03-23T09:55:15;11;9;
39955;PMS5003;25631;51.516;-0.470;2023-03-23T09:57:55;10;9;
39955;PMS5003;25631;51.516;-0.470;2023-03-23T10:00:37;10;9;
39955;PMS5003;25631;51.516;-0.470;2023-03-23T10:03:18;10;9;
39955;PMS5003;25631;51.516;-0.470;2023-03-23T10:05:58;11;9;
39955;PMS5003;25631;51.516;-0.470;2023-03-23T10:08:43;11;9;
39955;PMS5003;25631;51.516;-0.470;2023-03-23T10:11:24;11;9;
39955;PMS5003;25631;51.516;-0.470;2023-03-23T10:14:12;12;8;
39955;PMS5003;25631;51.516;-0.470;2023-03-23T10:17:00;12;8;
39955;PMS5003;25631;51.516;-0.470;2023-03-23T10:19:51;11;7;
39955;PMS5003;25631;51.516;-0.470;2023-03-23T10:22:35;11;7;
39955;PMS5003;25631;51.516;-0.470;2023-03-23T10:25:19;11;7;
39955;PMS5003;25631;51.516;-0.470;2023-03-23T10:27:59;11;7;
39955;PMS5003;25631;51.516;-0.470;2023-03-23T10:30:40;14;9;
39955;PMS5003;25631;51.516;-0.470;2023-03-23T10:33:20;14;10;
39955;PMS5003;25631;51.516;-0.470;2023-03-23T10:36:03;16;11;
39955;PMS5003;25631;51.516;-0.470;2023-03-23T10:38:45;17;12;
39955;PMS5003;25631;51.516;-0.470;2023-03-23T10:41:25;17;12;
39955;PMS5003;25631;51.516;-0.470;2023-03-23T10:44:04;17;12;
39955;PMS5003;25631;51.516;-0.470;2023-03-23T10:46:48;17;12;
39955;PMS5003;25631;51.516;-0.470;2023-03-23T10:49:33;19;14;
39955;PMS5003;25631;51.516;-0.470;2023-03-23T10:52:18;20;15;
39955;PMS5003;25631;51.516;-0.470;2023-03-23T10:55:03;21;16;
39955;PMS5003;25631;51.516;-0.470;2023-03-23T10:57:43;18;14;
39955;PMS5003;25631;51.516;-0.470;2023-03-23T11:00:23;19;14;
39955;PMS5003;25631;51.516;-0.470;2023-03-23T11:03:01;17;13;
39955;PMS5003;25631;51.516;-0.470;2023-03-23T11:05:41;17;13;
39955;PMS5003;25631;51.516;-0.470;2023-03-23T11:08:20;17;13;
39955;PMS5003;25631;51.516;-0.470;2023-03-23T11:10:58;15;12;
39955;PMS5003;25631;51.516;-0.470;2023-03-23T11:13:43;15;12;
39955;PMS5003;25631;51.516;-0.470;2023-03-23T11:16:22;15;12;
39955;PMS5003;25631;51.516;-0.470;2023-03-23T11:19:00;15;12;
39955;PMS5003;25631;51.516;-0.470;2023-03-23T11:21:49;15;12;
39955;PMS5003;25631;51.516;-0.470;2023-03-23T11:24:27;16;13;
39955;PMS5003;25631;51.516;-0.470;2023-03-23T11:27:05;16;12;
39955;PMS5003;25631;51.516;-0.470;2023-03-23T11:29:46;16;12;
39955;PMS5003;25631;51.516;-0.470;2023-03-23T11:32:26;15;11;
39955;PMS5003;25631;51.516;-0.470;2023-03-23T11:35:06;15;11;
39955;PMS5003;25631;51.516;-0.470;2023-03-23T11:37:53;15;11;
39955;PMS5003;25631;51.516;-0.470;2023-03-23T11:40:31;15;11;
39955;PMS5003;25631;51.516;-0.470;2023-03-23T11:43:09;12;9;
39955;PMS5003;25631;51.516;-0.470;2023-03-23T11:45:50;12;9;
39955;PMS5003;25631;51.516;-0.470;2023-03-23T11:48:35;12;9;
39955;PMS5003;25631;51.516;-0.470;2023-03-23T11:51:19;10;8;
39955;PMS5003;25631;51.516;-0.470;2023-03-23T11:54:02;10;8;
39955;PMS5003;25631;51.516;-0.470;2023-03-23T11:56:48;10;8;
39955;PMS5003;25631;51.516;-0.470;2023-03-23T11:59:27;9;7;
39955;PMS5003;25631;51.516;-0.470;2023-03-23T12:02:12;9;7;
39955;PMS5003;25631;51.516;-0.470;2023-03-23T12:05:10;9;7;
39955;PMS5003;25631;51.516;-0.470;2023-03-23T12:08:04;9;7;
39955;PMS5003;25631;51.516;-0.470;2023-03-23T12:10:58;9;7;
39955;PMS5003;25631;51.516;-0.470;2023-03-23T12:13:49;9;7;
39955;PMS5003;25631;51.516;-0.470;2023-03-23T12:16:35;7;6;
39955;PMS5003;25631;51.516;-0.470;2023-03-23T12:19:31;7;6;
39955;PMS5003;25631;51.516;-0.470;2023-03-23T12:22:19;7;6;
39955;PMS5003;25631;51.516;-0.470;2023-03-23T12:25:15;7;6;
39955;PMS5003;25631;51.516;-0.470;2023-03-23T12:28:00;7;6;
39955;PMS5003;25631;51.516;-0.470;2023-03-23T12:30:44;7;6;
39955;PMS5003;25631;51.516;-0.470;2023-03-23T12:33:27;10;6;
39955;PMS5003;25631;51.516;-0.470;2023-03-23T12:36:17;10;6;
39955;PMS5003;25631;51.516;-0.470;2023-03-23T12:39:05;11;7;
39955;PMS5003;25631;51.516;-0.470;2023-03-23T12:41:51;11;7;
39955;PMS5003;25631;51.516;-0.470;2023-03-23T12:44:35;11;7;
39955;PMS5003;25631;51.516;-0.470;2023-03-23T12:47:27;11;7;
39955;PMS5003;25631;51.516;-0.470;2023-03-23T12:50:13;11;7;
39955;PMS5003;25631;51.516;-0.470;2023-03-23T12:52:53;11;7;
39955;PMS5003;25631;51.516;-0.470;2023-03-23T12:55:34;11;7;
39955;PMS5003;25631;51.516;-0.470;2023-03-23T12:58:15;10;6;
39955;PMS5003;25631;51.516;-0.470;2023-03-23T13:00:57;10;6;
39955;PMS5003;25631;51.516;-0.470;2023-03-23T13:03:38;10;6;
39955;PMS5003;25631;51.516;-0.470;2023-03-23T13:06:19;9;5;
39955;PMS5003;25631;51.516;-0.470;2023-03-23T13:09:01;9;5;
39955;PMS5003;25631;51.516;-0.470;2023-03-23T13:11:41;9;5;
39955;PMS5003;25631;51.516;-0.470;2023-03-23T13:14:23;9;5;
39955;PMS5003;25631;51.516;-0.470;2023-03-23T13:17:10;9;5;
39955;PMS5003;25631;51.516;-0.470;2023-03-23T13:20:02;9;5;
39955;PMS5003;25631;51.516;-0.470;2023-03-23T13:22:55;8;6;
39955;PMS5003;25631;51.516;-0.470;2023-03-23T13:25:41;8;6;
39955;PMS5003;25631;51.516;-0.470;2023-03-23T13:28:24;8;6;
39955;PMS5003;25631;51.516;-0.470;2023-03-23T13:31:03;10;7;
39955;PMS5003;25631;51.516;-0.470;2023-03-23T13:33:49;10;7;
39955;PMS5003;25631;51.516;-0.470;2023-03-23T13:36:28;10;7;
39955;PMS5003;25631;51.516;-0.470;2023-03-23T13:39:18;12;8;
39955;PMS5003;25631;51.516;-0.470;2023-03-23T13:42:05;12;8;
39955;PMS5003;25631;51.516;-0.470;2023-03-23T13:44:56;12;8;
39955;PMS5003;25631;51.516;-0.470;2023-03-23T13:47:43;12;7;
39955;PMS5003;25631;51.516;-0.470;2023-03-23T13:50:27;12;7;
39955;PMS5003;25631;51.516;-0.470;2023-03-23T13:53:13;12;7;
39955;PMS5003;25631;51.516;-0.470;2023-03-23T13:55:51;11;9;
39955;PMS5003;25631;51.516;-0.470;2023-03-23T13:58:45;11;9;
39955;PMS5003;25631;51.516;-0.470;2023-03-23T14:01:31;11;9;
39955;PMS5003;25631;51.516;-0.470;2023-03-23T14:04:10;11;8;
39955;PMS5003;25631;51.516;-0.470;2023-03-23T14:06:51;11;8;
39955;PMS5003;25631;51.516;-0.470;2023-03-23T14:09:28;11;8;
39955;PMS5003;25631;51.516;-0.470;2023-03-23T14:12:14;11;9;
39955;PMS5003;25631;51.516;-0.470;2023-03-23T14:14:55;11;9;
39955;PMS5003;25631;51.516;-0.470;2023-03-23T14:17:39;11;9;
39955;PMS5003;25631;51.516;-0.470;2023-03-23T14:20:21;11;9;
39955;PMS5003;25631;51.516;-0.470;2023-03-23T14:23:02;11;9;
39955;PMS5003;25631;51.516;-0.470;2023-03-23T14:25:38;11;9;
39955;PMS5003;25631;51.516;-0.470;2023-03-23T14:28:16;12;9;
39955;PMS5003;25631;51.516;-0.470;2023-03-23T14:30:54;12;9;
39955;PMS5003;25631;51.516;-0.470;2023-03-23T14:33:30;12;9;
39955;PMS5003;25631;51.516;-0.470;2023-03-23T14:36:07;12;9;
39955;PMS5003;25631;51.516;-0.470;2023-03-23T14:38:44;12;9;
39955;PMS5003;25631;51.516;-0.470;2023-03-23T14:41:20;12;9;
39955;PMS5003;25631;51.516;-0.470;2023-03-23T14:43:59;12;9;
39955;PMS5003;25631;51.516;-0.470;2023-03-23T14:46:37;12;9;
39955;PMS5003;25631;51.516;-0.470;2023-03-23T14:49:15;12;9;
39955;PMS5003;25631;51.516;-0.470;2023-03-23T14:51:55;11;8;
39955;PMS5003;25631;51.516;-0.470;2023-03-23T14:54:31;11;8;
39955;PMS5003;25631;51.516;-0.470;2023-03-23T14:57:11;11;8;
39955;PMS5003;25631;51.516;-0.470;2023-03-23T14:59:49;10;8;
39955;PMS5003;25631;51.516;-0.470;2023-03-23T15:02:26;10;8;
39955;PMS5003;25631;51.516;-0.470;2023-03-23T15:05:09;10;8;
39955;PMS5003;25631;51.516;-0.470;2023-03-23T15:07:50;11;8;
39955;PMS5003;25631;51.516;-0.470;2023-03-23T15:10:30;10;7;
39955;PMS5003;25631;51.516;-0.470;2023-03-23T15:13:09;10;7;
39955;PMS5003;25631;51.516;-0.470;2023-03-23T15:15:48;10;7;
39955;PMS5003;25631;51.516;-0.470;2023-03-23T15:18:29;11;8;
39955;PMS5003;25631;51.516;-0.470;2023-03-23T15:21:09;11;8;
39955;PMS5003;25631;51.516;-0.470;2023-03-23T15:23:54;11;8;
39955;PMS5003;25631;51.516;-0.470;2023-03-23T15:26:32;11;8;
39955;PMS5003;25631;51.516;-0.470;2023-03-23T15:29:12;11;8;
39955;PMS5003;25631;51.516;-0.470;2023-03-23T15:31:53;12;9;
39955;PMS5003;25631;51.516;-0.470;2023-03-23T15:34:31;14;11;
39955;PMS5003;25631;51.516;-0.470;2023-03-23T15:37:16;16;12;
39955;PMS5003;25631;51.516;-0.470;2023-03-23T15:39:55;16;12;
39955;PMS5003;25631;51.516;-0.470;2023-03-23T15:42:34;16;14;
39955;PMS5003;25631;51.516;-0.470;2023-03-23T15:45:26;18;14;
39955;PMS5003;25631;51.516;-0.470;2023-03-23T15:48:09;18;14;
39955;PMS5003;25631;51.516;-0.470;2023-03-23T15:50:47;17;14;
39955;PMS5003;25631;51.516;-0.470;2023-03-23T15:53:27;18;14;
39955;PMS5003;25631;51.516;-0.470;2023-03-23T15:56:07;19;16;
39955;PMS5003;25631;51.516;-0.470;2023-03-23T15:58:44;17;14;
39955;PMS5003;25631;51.516;-0.470;2023-03-23T16:01:21;15;13;
39955;PMS5003;25631;51.516;-0.470;2023-03-23T16:04:00;14;12;
39955;PMS5003;25631;51.516;-0.470;2023-03-23T16:06:42;14;12;
39955;PMS5003;25631;51.516;-0.470;2023-03-23T16:09:19;14;12;
39955;PMS5003;25631;51.516;-0.470;2023-03-23T16:11:56;13;11;
39955;PMS5003;25631;51.516;-0.470;2023-03-23T16:14:32;13;11;
39955;PMS5003;25631;51.516;-0.470;2023-03-23T16:17:09;13;11;
39955;PMS5003;25631;51.516;-0.470;2023-03-23T16:19:49;13;11;
39955;PMS5003;25631;51.516;-0.470;2023-03-23T16:22:25;13;11;
39955;PMS5003;25631;51.516;-0.470;2023-03-23T16:25:02;13;11;
39955;PMS5003;25631;51.516;-0.470;2023-03-23T16:27:39;10;10;
39955;PMS5003;25631;51.516;-0.470;2023-03-23T16:30:17;10;10;
39955;PMS5003;25631;51.516;-0.470;2023-03-23T16:32:55;10;10;
39955;PMS5003;25631;51.516;-0.470;2023-03-23T16:35:31;12;11;
39955;PMS5003;25631;51.516;-0.470;2023-03-23T16:38:09;12;11;
39955;PMS5003;25631;51.516;-0.470;2023-03-23T16:40:47;12;11;
39955;PMS5003;25631;51.516;-0.470;2023-03-23T16:43:24;13;12;
39955;PMS5003;25631;51.516;-0.470;2023-03-23T16:46:01;13;12;
39955;PMS5003;25631;51.516;-0.470;2023-03-23T16:48:38;13;12;
39955;PMS5003;25631;51.516;-0.470;2023-03-23T16:51:15;12;10;
39955;PMS5003;25631;51.516;-0.470;2023-03-23T16:53:51;12;10;
39955;PMS5003;25631;51.516;-0.470;2023-03-23T16:56:28;12;10;
39955;PMS5003;25631;51.516;-0.470;2023-03-23T16:59:04;11;9;
39955;PMS5003;25631;51.516;-0.470;2023-03-23T17:01:41;11;9;
39955;PMS5003;25631;51.516;-0.470;2023-03-23T17:04:17;11;9;
39955;PMS5003;25631;51.516;-0.470;2023-03-23T17:06:54;11;9;
39955;PMS5003;25631;51.516;-0.470;2023-03-23T17:09:31;11;9;
39955;PMS5003;25631;51.516;-0.470;2023-03-23T17:12:09;11;9;
39955;PMS5003;25631;51.516;-0.470;2023-03-23T17:14:45;10;9;
39955;PMS5003;25631;51.516;-0.470;2023-03-23T17:17:22;10;9;
39955;PMS5003;25631;51.516;-0.470;2023-03-23T17:19:59;10;9;
39955;PMS5003;25631;51.516;-0.470;2023-03-23T17:22:36;11;9;
39955;PMS5003;25631;51.516;-0.470;2023-03-23T17:25:13;11;9;
39955;PMS5003;25631;51.516;-0.470;2023-03-23T17:27:49;11;9;
39955;PMS5003;25631;51.516;-0.470;2023-03-23T17:30:26;11;9;
39955;PMS5003;25631;51.516;-0.470;2023-03-23T17:33:02;11;9;
39955;PMS5003;25631;51.516;-0.470;2023-03-23T17:35:39;11;9;
39955;PMS5003;25631;51.516;-0.470;2023-03-23T17:38:16;12;9;
39955;PMS5003;25631;51.516;-0.470;2023-03-23T17:40:56;12;9;
39955;PMS5003;25631;51.516;-0.470;2023-03-23T17:43:33;12;9;